createdAt,value
2016-06-17T00:00:57.869Z,23.43
2016-06-17T00:01:59.155Z,23.43
2016-06-17T00:02:58.033Z,23.42
2016-06-17T00:03:58.848Z,23.42
2016-06-17T00:04:58.055Z,23.42
2016-06-17T00:05:58.059Z,23.46
2016-06-17T00:06:58.093Z,23.48
2016-06-17T00:07:58.081Z,23.42
2016-06-17T00:08:58.085Z,23.4
2016-06-17T00:09:58.088Z,23.43
2016-06-17T00:10:58.107Z,23.36
2016-06-17T00:11:58.095Z,23.4
2016-06-17T00:12:59.255Z,23.39
2016-06-17T00:13:57.961Z,23.42
2016-06-17T00:14:58.933Z,23.43
2016-06-17T00:15:57.968Z,23.42
2016-06-17T00:16:58.128Z,23.4
2016-06-17T00:17:58.131Z,23.4
2016-06-17T00:18:58.134Z,23.42
2016-06-17T00:19:57.998Z,23.39
2016-06-17T00:20:58.157Z,23.42
2016-06-17T00:21:58.177Z,23.38
2016-06-17T00:22:58.180Z,23.43
2016-06-17T00:23:59.231Z,23.42
2016-06-17T00:24:58.187Z,23.38
2016-06-17T00:25:58.831Z,23.43
2016-06-17T00:26:58.037Z,23.43
2016-06-17T00:27:58.057Z,23.46
2016-06-17T00:28:58.044Z,23.42
2016-06-17T00:29:58.219Z,23.42
2016-06-17T00:30:58.239Z,23.4
2016-06-17T00:31:58.226Z,23.42
2016-06-17T00:32:58.246Z,23.4
2016-06-17T00:33:58.249Z,23.42
2016-06-17T00:34:59.206Z,23.39
2016-06-17T00:35:58.256Z,23.39
2016-06-17T00:36:58.869Z,23.36
2016-06-17T00:37:58.263Z,23.38
2016-06-17T00:38:58.126Z,23.36
2016-06-17T00:39:58.286Z,23.46
2016-06-17T00:40:58.289Z,23.39
2016-06-17T00:41:58.308Z,23.39
2016-06-17T00:42:58.297Z,23.33
2016-06-17T00:43:58.315Z,23.36
2016-06-17T00:44:58.318Z,23.28
2016-06-17T00:45:58.743Z,23.39
2016-06-17T00:46:58.169Z,23.35
2016-06-17T00:47:59.126Z,23.35
2016-06-17T00:48:58.332Z,23.38
2016-06-17T00:49:58.507Z,23.39
2016-06-17T00:50:58.416Z,23.32
2016-06-17T00:51:58.357Z,23.38
2016-06-17T00:52:58.391Z,23.36
2016-06-17T00:53:58.207Z,23.4
2016-06-17T00:54:58.381Z,23.39
2016-06-17T00:55:58.072Z,23.35
2016-06-17T00:56:59.372Z,23.35
2016-06-17T00:57:58.391Z,23.36
2016-06-17T00:58:59.113Z,23.32
2016-06-17T00:59:58.414Z,23.27
2016-06-17T01:00:58.433Z,23.31
2016-06-17T01:01:58.420Z,23.32
2016-06-17T01:02:58.440Z,23.32
2016-06-17T01:03:58.286Z,23.35
2016-06-17T01:04:58.289Z,23.27
2016-06-17T01:05:58.293Z,23.27
2016-06-17T01:06:58.454Z,23.35
2016-06-17T01:07:58.144Z,23.35
2016-06-17T01:08:58.461Z,23.33
2016-06-17T01:09:59.448Z,23.31
2016-06-17T01:10:58.482Z,23.32
2016-06-17T01:11:58.502Z,23.27
2016-06-17T01:12:58.489Z,23.35
2016-06-17T01:13:58.492Z,23.28
2016-06-17T01:14:58.199Z,23.32
2016-06-17T01:15:58.516Z,23.28
2016-06-17T01:16:58.519Z,23.35
2016-06-17T01:17:58.522Z,23.31
2016-06-17T01:18:58.573Z,23.32
2016-06-17T01:19:58.529Z,23.32
2016-06-17T01:20:59.580Z,23.35
2016-06-17T01:21:58.553Z,23.33
2016-06-17T01:22:58.570Z,23.27
2016-06-17T01:23:58.575Z,23.31
2016-06-17T01:24:58.577Z,23.36
2016-06-17T01:25:58.581Z,23.38
2016-06-17T01:26:58.273Z,23.27
2016-06-17T01:27:58.432Z,23.35
2016-06-17T01:28:58.591Z,23.32
2016-06-17T01:29:59.564Z,23.25
2016-06-17T01:30:58.614Z,23.27
2016-06-17T01:31:59.399Z,23.33
2016-06-17T01:32:58.622Z,23.36
2016-06-17T01:33:58.639Z,23.33
2016-06-17T01:34:58.472Z,23.35
2016-06-17T01:35:58.476Z,23.36
2016-06-17T01:36:58.636Z,23.35
2016-06-17T01:37:58.498Z,23.28
2016-06-17T01:38:58.658Z,23.32
2016-06-17T01:39:58.676Z,23.31
2016-06-17T01:40:58.618Z,23.28
2016-06-17T01:41:58.528Z,23.31
2016-06-17T01:42:59.812Z,23.2
2016-06-17T01:43:58.691Z,23.31
2016-06-17T01:44:58.694Z,23.17
2016-06-17T01:45:58.572Z,23.32
2016-06-17T01:46:58.732Z,23.2
2016-06-17T01:47:58.721Z,23.22
2016-06-17T01:48:58.723Z,23.2
2016-06-17T01:49:58.633Z,23.28
2016-06-17T01:50:58.731Z,23.31
2016-06-17T01:51:58.593Z,23.27
2016-06-17T01:52:58.597Z,23.31
2016-06-17T01:53:59.694Z,23.23
2016-06-17T01:54:58.775Z,23.22
2016-06-17T01:55:58.779Z,23.23
2016-06-17T01:56:58.629Z,23.27
2016-06-17T01:57:58.790Z,23.23
2016-06-17T01:58:58.794Z,23.19
2016-06-17T01:59:58.799Z,23.2
2016-06-17T02:00:58.804Z,23.17
2016-06-17T02:01:58.824Z,23.31
2016-06-17T02:02:58.828Z,23.33
2016-06-17T02:03:58.832Z,23.2
2016-06-17T02:04:59.663Z,23.28
2016-06-17T02:05:58.854Z,23.32
2016-06-17T02:06:58.858Z,23.25
2016-06-17T02:07:58.862Z,23.32
2016-06-17T02:08:58.866Z,23.32
2016-06-17T02:09:58.885Z,23.2
2016-06-17T02:10:58.889Z,23.35
2016-06-17T02:11:58.908Z,23.22
2016-06-17T02:12:58.881Z,23.27
2016-06-17T02:13:59.836Z,23.19
2016-06-17T02:14:58.918Z,23.19
2016-06-17T02:15:59.500Z,23.27
2016-06-17T02:16:58.925Z,23.32
2016-06-17T02:17:58.929Z,23.22
2016-06-17T02:18:58.932Z,23.32
2016-06-17T02:19:58.935Z,23.28
2016-06-17T02:20:58.939Z,23.31
2016-06-17T02:21:58.943Z,23.16
2016-06-17T02:22:58.961Z,23.19
2016-06-17T02:23:58.981Z,23.19
2016-06-17T02:24:59.766Z,23.23
2016-06-17T02:25:58.831Z,23.31
2016-06-17T02:26:59.570Z,23.27
2016-06-17T02:27:58.996Z,23.32
2016-06-17T02:28:58.998Z,23.23
2016-06-17T02:29:58.845Z,23.25
2016-06-17T02:30:58.865Z,23.23
2016-06-17T02:31:58.852Z,23.16
2016-06-17T02:32:58.872Z,23.23
2016-06-17T02:33:59.030Z,23.22
2016-06-17T02:34:59.050Z,23.23
2016-06-17T02:35:59.679Z,23.23
2016-06-17T02:36:59.042Z,23.23
2016-06-17T02:37:59.997Z,23.16
2016-06-17T02:38:59.064Z,23.23
2016-06-17T02:39:58.912Z,23.23
2016-06-17T02:40:59.071Z,23.23
2016-06-17T02:41:59.075Z,23.17
2016-06-17T02:42:59.078Z,23.17
2016-06-17T02:43:59.081Z,23.22
2016-06-17T02:44:59.101Z,23.13
2016-06-17T02:45:58.948Z,23.2
2016-06-17T02:47:00.061Z,23.2
2016-06-17T02:47:59.111Z,23.13
2016-06-17T02:49:00.036Z,23.17
2016-06-17T02:49:59.133Z,23.16
2016-06-17T02:50:59.028Z,23.13
2016-06-17T02:51:59.140Z,23.12
2016-06-17T02:52:59.143Z,23.13
2016-06-17T02:53:59.163Z,23.2
2016-06-17T02:54:59.011Z,23.16
2016-06-17T02:55:59.154Z,23.27
2016-06-17T02:56:59.001Z,23.12
2016-06-17T02:58:00.146Z,23.25
2016-06-17T02:58:59.180Z,23.2
2016-06-17T03:00:00.059Z,23.31
2016-06-17T03:00:59.202Z,23.22
2016-06-17T03:01:59.191Z,23.19
2016-06-17T03:02:59.209Z,23.22
2016-06-17T03:03:59.198Z,23.19
2016-06-17T03:04:59.060Z,23.15
2016-06-17T03:05:59.220Z,23.19
2016-06-17T03:06:59.083Z,23.13
2016-06-17T03:07:59.226Z,23.2
2016-06-17T03:08:59.230Z,23.2
2016-06-17T03:09:59.249Z,23.19
2016-06-17T03:11:00.316Z,23.23
2016-06-17T03:11:59.256Z,23.1
2016-06-17T03:12:59.276Z,23.19
2016-06-17T03:13:59.279Z,23.13
2016-06-17T03:14:59.283Z,23.17
2016-06-17T03:15:59.286Z,23.16
2016-06-17T03:16:59.290Z,23.16
2016-06-17T03:17:59.293Z,23.15
2016-06-17T03:18:59.311Z,23.17
2016-06-17T03:19:59.409Z,23.13
2016-06-17T03:20:59.334Z,23.17
2016-06-17T03:22:00.447Z,23.17
2016-06-17T03:22:59.326Z,23.19
2016-06-17T03:23:59.329Z,23.13
2016-06-17T03:24:59.332Z,23.13
2016-06-17T03:25:59.336Z,23.15
2016-06-17T03:26:59.355Z,23.17
2016-06-17T03:27:59.359Z,23.19
2016-06-17T03:28:59.393Z,23.17
2016-06-17T03:29:59.382Z,23.16
2016-06-17T03:30:59.478Z,23.13
2016-06-17T03:31:59.388Z,23.12
2016-06-17T03:33:00.438Z,23.15
2016-06-17T03:33:59.395Z,23.13
2016-06-17T03:34:59.413Z,23.15
2016-06-17T03:35:59.434Z,23.05
2016-06-17T03:36:59.420Z,23.15
2016-06-17T03:37:59.424Z,23.07
2016-06-17T03:38:59.428Z,23.04
2016-06-17T03:39:59.432Z,23.05
2016-06-17T03:40:59.434Z,23.09
2016-06-17T03:41:59.454Z,23.07
2016-06-17T03:42:59.457Z,23.05
2016-06-17T03:44:00.398Z,23.09
2016-06-17T03:44:59.152Z,23.1
2016-06-17T03:45:59.483Z,23.07
2016-06-17T03:46:59.331Z,23.15
2016-06-17T03:47:59.490Z,23.15
2016-06-17T03:48:59.494Z,23.02
2016-06-17T03:49:59.512Z,23.15
2016-06-17T03:50:59.547Z,23.15
2016-06-17T03:51:59.411Z,23.1
2016-06-17T03:52:59.367Z,23.05
2016-06-17T03:53:59.386Z,23.05
2016-06-17T03:54:59.546Z,23.02
2016-06-17T03:55:59.392Z,23.07
2016-06-17T03:56:59.537Z,23.07
2016-06-17T03:57:59.400Z,23.01
2016-06-17T03:58:59.403Z,23.07
2016-06-17T03:59:59.406Z,23.02
2016-06-17T04:00:59.582Z,23.05
2016-06-17T04:01:59.570Z,23.15
2016-06-17T04:02:59.605Z,23.09
2016-06-17T04:03:59.733Z,23.07
2016-06-17T04:04:59.595Z,23
2016-06-17T04:06:00.834Z,23.13
2016-06-17T04:06:59.603Z,23
2016-06-17T04:07:59.606Z,23.02
2016-06-17T04:08:59.625Z,23.07
2016-06-17T04:09:59.613Z,23.02
2016-06-17T04:10:59.632Z,23.05
2016-06-17T04:11:59.636Z,23.02
2016-06-17T04:12:59.642Z,23
2016-06-17T04:13:59.665Z,23.01
2016-06-17T04:14:59.875Z,23.05
2016-06-17T04:15:59.679Z,22.98
2016-06-17T04:16:59.685Z,23.01
2016-06-17T04:17:59.691Z,23.07
2016-06-17T04:18:59.695Z,23.02
2016-06-17T04:19:59.715Z,23.02
2016-06-17T04:20:59.719Z,23.01
2016-06-17T04:21:59.724Z,23.04
2016-06-17T04:22:59.729Z,23.05
2016-06-17T04:23:59.748Z,23
2016-06-17T04:24:59.752Z,23.02
2016-06-17T04:26:00.006Z,23.04
2016-06-17T04:26:59.759Z,23.05
2016-06-17T04:27:59.763Z,23.01
2016-06-17T04:28:59.626Z,23.04
2016-06-17T04:29:59.786Z,22.97
2016-06-17T04:30:59.806Z,23.01
2016-06-17T04:31:59.793Z,23.04
2016-06-17T04:32:59.798Z,23.05
2016-06-17T04:33:59.800Z,23.05
2016-06-17T04:34:59.804Z,23.04
2016-06-17T04:35:59.824Z,23.04
2016-06-17T04:37:00.234Z,23.04
2016-06-17T04:37:59.830Z,23.07
2016-06-17T04:38:59.834Z,23.07
2016-06-17T04:39:59.837Z,23.15
2016-06-17T04:40:59.841Z,23.02
2016-06-17T04:41:59.704Z,23.07
2016-06-17T04:42:59.706Z,23.12
2016-06-17T04:43:59.710Z,23.15
2016-06-17T04:44:59.870Z,23.15
2016-06-17T04:45:59.875Z,23.15
2016-06-17T04:46:59.893Z,23.04
2016-06-17T04:48:00.304Z,23.13
2016-06-17T04:48:59.743Z,23.15
2016-06-17T04:49:59.903Z,23.13
2016-06-17T04:50:59.969Z,23.15
2016-06-17T04:51:59.863Z,23.12
2016-06-17T04:52:59.774Z,23.12
2016-06-17T04:53:59.777Z,23.13
2016-06-17T04:54:59.952Z,23.02
2016-06-17T04:55:59.940Z,23
2016-06-17T04:56:59.960Z,23.04
2016-06-17T04:57:59.791Z,23
2016-06-17T04:59:00.623Z,23.09
2016-06-17T04:59:59.828Z,23.02
2016-06-17T05:00:59.973Z,23.12
2016-06-17T05:01:59.992Z,23.16
2016-06-17T05:02:59.995Z,23.1
2016-06-17T05:03:59.999Z,23.13
2016-06-17T05:05:00.002Z,23.15
2016-06-17T05:05:59.849Z,23.19
2016-06-17T05:07:00.009Z,23.16
2016-06-17T05:08:00.013Z,23.16
2016-06-17T05:09:00.032Z,23.19
2016-06-17T05:10:00.739Z,23.16
2016-06-17T05:10:59.882Z,23.16
2016-06-17T05:12:00.042Z,23.15
2016-06-17T05:12:59.905Z,23.13
2016-06-17T05:14:00.049Z,23.04
2016-06-17T05:15:00.068Z,23.04
2016-06-17T05:15:59.915Z,23.2
2016-06-17T05:16:59.918Z,23.12
2016-06-17T05:18:00.078Z,23.16
2016-06-17T05:19:00.097Z,23.15
2016-06-17T05:20:00.101Z,23.17
2016-06-17T05:21:00.605Z,23.15
2016-06-17T05:22:00.123Z,23.17
2016-06-17T05:23:00.111Z,23.05
2016-06-17T05:24:00.130Z,23.04
2016-06-17T05:25:00.134Z,23.12
2016-06-17T05:26:00.310Z,23
2016-06-17T05:26:59.984Z,23.01
2016-06-17T05:28:00.160Z,23
2016-06-17T05:29:00.007Z,23.01
2016-06-17T05:30:00.011Z,23.04
2016-06-17T05:31:00.014Z,23.04
2016-06-17T05:32:00.987Z,23.05
2016-06-17T05:33:00.177Z,23.09
2016-06-17T05:34:00.196Z,22.97
2016-06-17T05:35:00.200Z,23.02
2016-06-17T05:36:00.187Z,23.07
2016-06-17T05:37:00.207Z,23.02
2016-06-17T05:38:00.210Z,23.01
2016-06-17T05:39:00.230Z,23.12
2016-06-17T05:40:00.076Z,23.04
2016-06-17T05:41:00.079Z,23.02
2016-06-17T05:42:00.083Z,23.04
2016-06-17T05:43:01.102Z,23.01
2016-06-17T05:44:00.106Z,23.05
2016-06-17T05:45:00.109Z,23.16
2016-06-17T05:46:00.254Z,23.07
2016-06-17T05:47:00.272Z,23.07
2016-06-17T05:48:00.136Z,23.05
2016-06-17T05:49:00.279Z,23.17
2016-06-17T05:50:00.299Z,23.16
2016-06-17T05:51:00.286Z,23.15
2016-06-17T05:52:00.305Z,23.13
2016-06-17T05:53:00.215Z,23.1
2016-06-17T05:54:01.359Z,23.15
2016-06-17T05:55:00.331Z,23.13
2016-06-17T05:56:00.334Z,23.19
2016-06-17T05:57:00.026Z,23.16
2016-06-17T05:58:00.341Z,23.16
2016-06-17T05:59:00.360Z,23.16
2016-06-17T06:00:00.365Z,23.17
2016-06-17T06:01:00.367Z,23.17
2016-06-17T06:02:00.371Z,23.13
2016-06-17T06:03:00.375Z,23.13
2016-06-17T06:04:00.378Z,23.16
2016-06-17T06:05:00.881Z,23.17
2016-06-17T06:06:00.400Z,23.17
2016-06-17T06:07:00.607Z,23.13
2016-06-17T06:08:00.408Z,23.16
2016-06-17T06:09:00.412Z,23.17
2016-06-17T06:10:00.429Z,23.12
2016-06-17T06:11:00.277Z,23.15
2016-06-17T06:12:00.436Z,23.05
2016-06-17T06:13:00.440Z,23.13
2016-06-17T06:14:00.444Z,23.16
2016-06-17T06:15:00.447Z,23.15
2016-06-17T06:16:01.138Z,23.13
2016-06-17T06:17:00.314Z,23.16
2016-06-17T06:18:00.864Z,23.07
2016-06-17T06:19:00.321Z,23.16
2016-06-17T06:20:00.481Z,23.16
2016-06-17T06:21:00.499Z,23.17
2016-06-17T06:22:00.504Z,23.1
2016-06-17T06:23:00.506Z,23.16
2016-06-17T06:24:00.353Z,23.13
2016-06-17T06:25:00.529Z,23.05
2016-06-17T06:26:00.532Z,23.15
2016-06-17T06:27:01.646Z,23.15
2016-06-17T06:28:00.539Z,23.07
2016-06-17T06:29:01.434Z,23.13
2016-06-17T06:30:00.551Z,23.15
2016-06-17T06:31:00.560Z,23.09
2016-06-17T06:32:00.568Z,23.16
2016-06-17T06:33:00.577Z,23.09
2016-06-17T06:34:00.585Z,23.07
2016-06-17T06:35:00.606Z,23.05
2016-06-17T06:36:00.611Z,23.04
2016-06-17T06:37:00.631Z,23.16
2016-06-17T06:38:00.479Z,23.09
2016-06-17T06:39:00.641Z,23.09
2016-06-17T06:40:01.599Z,23.07
2016-06-17T06:41:00.650Z,23.07
2016-06-17T06:42:00.653Z,23
2016-06-17T06:43:00.674Z,23.02
2016-06-17T06:44:00.694Z,23
2016-06-17T06:45:00.681Z,23
2016-06-17T06:46:00.685Z,23.07
2016-06-17T06:47:00.688Z,23.02
2016-06-17T06:48:00.395Z,22.97
2016-06-17T06:49:00.695Z,22.98
2016-06-17T06:50:00.714Z,22.98
2016-06-17T06:51:01.827Z,23.1
2016-06-17T06:52:00.736Z,23.09
2016-06-17T06:53:00.740Z,23.1
2016-06-17T06:54:00.729Z,23
2016-06-17T06:55:00.794Z,23.09
2016-06-17T06:56:00.751Z,23.01
2016-06-17T06:57:00.769Z,23.05
2016-06-17T06:58:00.601Z,23.01
2016-06-17T06:59:00.777Z,23.05
2016-06-17T07:00:00.780Z,23.07
2016-06-17T07:01:00.628Z,23.02
2016-06-17T07:02:01.849Z,23.01
2016-06-17T07:03:00.634Z,23
2016-06-17T07:04:00.637Z,23
2016-06-17T07:05:00.813Z,23.05
2016-06-17T07:06:00.817Z,23.02
2016-06-17T07:07:00.836Z,23.02
2016-06-17T07:08:00.666Z,23.02
2016-06-17T07:09:00.827Z,23
2016-06-17T07:10:00.845Z,23.01
2016-06-17T07:11:00.849Z,23.02
2016-06-17T07:12:00.853Z,23
2016-06-17T07:13:01.512Z,22.98
2016-06-17T07:14:00.720Z,23.02
2016-06-17T07:15:00.879Z,23.07
2016-06-17T07:16:00.726Z,23.01
2016-06-17T07:17:00.886Z,23
2016-06-17T07:18:00.890Z,23.05
2016-06-17T07:19:00.892Z,23.05
2016-06-17T07:20:00.912Z,23.02
2016-06-17T07:21:00.774Z,23
2016-06-17T07:22:00.762Z,23
2016-06-17T07:23:00.922Z,23.01
2016-06-17T07:24:01.598Z,23
2016-06-17T07:25:00.789Z,23.05
2016-06-17T07:26:00.948Z,22.98
2016-06-17T07:27:00.951Z,23.07
2016-06-17T07:28:00.955Z,23.01
2016-06-17T07:29:00.975Z,23.02
2016-06-17T07:30:00.977Z,23.02
2016-06-17T07:31:00.857Z,23
2016-06-17T07:32:00.984Z,23
2016-06-17T07:33:00.988Z,23
2016-06-17T07:34:00.992Z,23.04
2016-06-17T07:35:01.777Z,23.04
2016-06-17T07:36:01.030Z,23.01
2016-06-17T07:37:01.033Z,23.1
2016-06-17T07:38:01.020Z,23.01
2016-06-17T07:39:01.040Z,23.13
2016-06-17T07:40:00.871Z,23.16
2016-06-17T07:41:00.875Z,23.16
2016-06-17T07:42:01.051Z,23.16
2016-06-17T07:43:01.053Z,23.13
2016-06-17T07:44:01.119Z,23.09
2016-06-17T07:45:00.905Z,23.17
2016-06-17T07:46:02.017Z,23.15
2016-06-17T07:47:01.084Z,23.13
2016-06-17T07:48:01.087Z,23.17
2016-06-17T07:49:01.091Z,23.17
2016-06-17T07:50:00.953Z,23.25
2016-06-17T07:51:00.956Z,23.17
2016-06-17T07:52:01.116Z,23.16
2016-06-17T07:53:00.964Z,23.13
2016-06-17T07:54:01.217Z,23.15
2016-06-17T07:55:01.407Z,23.07
2016-06-17T07:56:01.146Z,23.17
2016-06-17T07:57:01.149Z,23.15
2016-06-17T07:58:01.153Z,23.07
2016-06-17T07:59:01.171Z,23.16
2016-06-17T08:00:01.175Z,23.16
2016-06-17T08:04:53.131Z,23.19
2016-06-17T08:05:04.068Z,23.15
2016-06-17T08:06:04.072Z,23.15
2016-06-17T08:07:03.466Z,23.16
2016-06-17T08:08:05.766Z,23.16
2016-06-17T08:09:04.098Z,23.17
2016-06-17T08:10:03.476Z,23.13
2016-06-17T08:11:03.480Z,23.15
2016-06-17T08:12:04.109Z,23.13
2016-06-17T08:13:03.501Z,23.13
2016-06-17T08:14:03.505Z,23.1
2016-06-17T08:15:03.508Z,23.15
2016-06-17T08:16:03.512Z,23.15
2016-06-17T08:17:04.015Z,23.2
2016-06-17T08:18:03.519Z,23.15
2016-06-17T08:19:04.148Z,23.2
2016-06-17T08:20:04.776Z,23.17
2016-06-17T08:21:03.545Z,23.19
2016-06-17T08:22:03.549Z,23.23
2016-06-17T08:23:03.583Z,23.25
2016-06-17T08:24:04.337Z,23.22
2016-06-17T08:25:04.199Z,23.19
2016-06-17T08:26:04.203Z,23.2
2016-06-17T08:27:03.581Z,23.31
2016-06-17T08:28:04.304Z,23.2
2016-06-17T08:29:04.213Z,23.32
2016-06-17T08:30:06.108Z,23.31
2016-06-17T08:31:04.220Z,23.2
2016-06-17T08:32:04.787Z,23.19
2016-06-17T08:33:03.619Z,23.19
2016-06-17T08:34:03.638Z,23.23
2016-06-17T08:35:04.267Z,23.25
2016-06-17T08:36:03.644Z,23.17
2016-06-17T08:37:04.273Z,23.17
2016-06-17T08:38:04.886Z,23.27
2016-06-17T08:39:04.405Z,23.27
2016-06-17T08:40:04.284Z,23.25
2016-06-17T08:41:06.193Z,23.16
2016-06-17T08:42:03.665Z,23.13
2016-06-17T08:43:03.684Z,23.25
2016-06-17T08:44:03.687Z,23.2
2016-06-17T08:44:25.859Z,23.2
2016-06-17T08:45:26.473Z,23.17
2016-06-17T08:46:25.866Z,23.17
2016-06-17T08:47:25.934Z,23.15
2016-06-17T08:48:26.655Z,23.19
2016-06-17T08:49:25.894Z,23.17
2016-06-17T08:50:25.897Z,23.23
2016-06-17T08:51:25.916Z,23.27
2016-06-17T08:52:26.530Z,23.16
2016-06-17T08:53:25.909Z,23.22
2016-06-17T08:54:25.926Z,23.13
2016-06-17T08:55:25.930Z,23.13
2016-06-17T08:56:25.934Z,23.19
2016-06-17T08:57:26.594Z,23.25
2016-06-17T08:58:26.583Z,23.23
2016-06-17T08:59:26.757Z,23.13
2016-06-17T09:00:27.245Z,23.27
2016-06-17T09:01:28.686Z,23.17
2016-06-17T09:02:26.596Z,23.16
2016-06-17T09:03:26.600Z,23.23
2016-06-17T09:04:25.994Z,23.19
2016-06-17T09:05:25.998Z,23.23
2016-06-17T09:06:27.235Z,23.2
2016-06-17T09:07:26.035Z,23.17
2016-06-17T09:08:26.008Z,23.35
2016-06-17T09:16:26.032Z,23.19
2016-06-17T09:17:27.271Z,23.27
2016-06-17T09:24:24.410Z,23.25
2016-06-17T09:25:23.178Z,23.27
2016-06-17T09:26:23.214Z,23.33
2016-06-17T09:27:24.483Z,23.28
2016-06-17T09:28:24.611Z,23.2
2016-06-17T09:29:23.506Z,23.2
2016-06-17T09:30:23.821Z,23.35
2016-06-17T09:31:23.215Z,23.36
2016-06-17T09:32:23.219Z,23.28
2016-06-17T09:33:23.864Z,23.17
2016-06-17T09:34:23.226Z,23.32
2016-06-17T09:35:23.246Z,23.25
2016-06-17T09:36:24.483Z,23.2
2016-06-17T09:37:23.877Z,23.25
2016-06-17T09:38:24.834Z,23.19
2016-06-17T09:39:23.885Z,23.23
2016-06-17T09:40:23.872Z,23.22
2016-06-17T09:41:23.283Z,23.17
2016-06-17T09:42:23.287Z,23.31
2016-06-17T09:43:23.933Z,23.12
2016-06-17T09:44:23.313Z,23.17
2016-06-17T09:45:23.302Z,23.22
2016-06-17T09:46:23.322Z,23.2
2016-06-17T09:47:23.951Z,23.2
2016-06-17T09:48:23.954Z,23.19
2016-06-17T09:49:25.256Z,23.19
2016-06-17T09:50:24.587Z,23.17
2016-06-17T09:51:24.357Z,23.13
2016-06-17T09:52:23.985Z,23.16
2016-06-17T09:53:23.410Z,23.16
2016-06-17T09:54:23.992Z,23.19
2016-06-17T09:55:23.386Z,23.19
2016-06-17T09:56:23.436Z,23.17
2016-06-17T09:57:23.392Z,23.19
2016-06-17T09:58:24.024Z,23.12
2016-06-17T09:59:23.405Z,23.27
2016-06-17T10:00:23.426Z,23.27
2016-06-17T10:01:23.448Z,23.19
2016-06-17T10:02:24.563Z,23.17
2016-06-17T10:03:23.443Z,23.17
2016-06-17T10:04:23.463Z,23.25
2016-06-17T10:05:24.077Z,23.22
2016-06-17T10:06:24.081Z,23.28
2016-06-17T10:07:24.085Z,23.35
2016-06-17T10:08:23.478Z,23.2
2016-06-17T10:09:24.108Z,23.28
2016-06-17T10:10:24.112Z,23.25
2016-06-17T10:11:23.507Z,23.17
2016-06-17T10:12:23.494Z,23.23
2016-06-17T10:13:24.686Z,23.2
2016-06-17T10:14:24.142Z,23.16
2016-06-17T10:15:24.147Z,23.17
2016-06-17T10:16:23.542Z,23.23
2016-06-17T10:17:23.561Z,23.17
2016-06-17T10:18:23.565Z,23.31
2016-06-17T10:19:24.179Z,23.16
2016-06-17T10:20:24.183Z,23.12
2016-06-17T10:21:24.202Z,23.22
2016-06-17T10:22:26.066Z,23.17
2016-06-17T10:23:23.585Z,23.12
2016-06-17T10:24:23.589Z,23.13
2016-06-17T10:25:24.233Z,23.23
2016-06-17T10:26:24.220Z,23.33
2016-06-17T10:27:23.615Z,23.32
2016-06-17T10:28:24.228Z,23.35
2016-06-17T10:29:24.247Z,23.33
2016-06-17T10:30:24.266Z,23.28
2016-06-17T10:31:23.738Z,23.32
2016-06-17T10:32:24.273Z,23.33
2016-06-17T10:33:24.276Z,23.31
2016-06-17T10:34:24.280Z,23.31
2016-06-17T10:35:23.659Z,23.2
2016-06-17T10:36:23.677Z,23.2
2016-06-17T10:37:23.681Z,23.22
2016-06-17T10:38:24.309Z,23.19
2016-06-17T10:39:24.313Z,23.15
2016-06-17T10:40:24.316Z,23.27
2016-06-17T10:41:24.319Z,23.22
2016-06-17T10:42:25.104Z,23.17
2016-06-17T10:43:23.733Z,23.2
2016-06-17T10:44:24.346Z,23.15
2016-06-17T10:45:23.724Z,23.13
2016-06-17T10:46:25.322Z,23.27
2016-06-17T10:47:24.356Z,23.22
2016-06-17T10:48:24.374Z,23.19
2016-06-17T10:49:23.754Z,23.19
2016-06-17T10:50:24.383Z,23.16
2016-06-17T10:51:23.778Z,23.17
2016-06-17T10:52:23.766Z,23.27
2016-06-17T10:53:24.239Z,23.25
2016-06-17T10:54:23.791Z,23.15
2016-06-17T10:55:25.028Z,23.16
2016-06-17T10:56:24.469Z,23.16
2016-06-17T10:57:23.816Z,23.13
2016-06-17T10:58:24.491Z,23.2
2016-06-17T10:59:23.823Z,23.25
2016-06-17T11:00:24.452Z,23.23
2016-06-17T11:01:23.845Z,23.16
2016-06-17T11:02:24.506Z,23.22
2016-06-17T11:03:23.852Z,23.22
2016-06-17T11:04:24.371Z,23.23
2016-06-17T11:05:24.485Z,23.22
2016-06-17T11:06:25.112Z,23.23
2016-06-17T11:07:23.879Z,23.2
2016-06-17T11:08:23.882Z,23.25
2016-06-17T11:09:23.884Z,23.27
2016-06-17T11:10:24.528Z,23.19
2016-06-17T11:11:25.124Z,23.25
2016-06-17T11:12:24.549Z,23.19
2016-06-17T11:13:23.912Z,23.2
2016-06-17T11:14:23.915Z,23.22
2016-06-17T11:15:24.621Z,23.25
2016-06-17T11:16:24.546Z,23.31
2016-06-17T11:17:24.550Z,23.2
2016-06-17T11:18:24.568Z,23.31
2016-06-17T11:19:24.166Z,23.31
2016-06-17T11:20:23.951Z,23.27
2016-06-17T11:21:24.578Z,23.25
2016-06-17T11:22:23.973Z,23.32
2016-06-17T11:23:23.977Z,23.31
2016-06-17T11:24:24.589Z,23.33
2016-06-17T11:25:24.703Z,23.31
2016-06-17T11:26:25.752Z,23.31
2016-06-17T11:27:23.987Z,23.33
2016-06-17T11:28:24.916Z,23.33
2016-06-17T11:29:24.009Z,23.23
2016-06-17T11:30:24.626Z,23.27
2016-06-17T11:31:24.644Z,23.33
2016-06-17T11:32:24.035Z,23.36
2016-06-17T11:33:24.652Z,23.28
2016-06-17T11:34:24.059Z,23.19
2016-06-17T11:35:24.674Z,22.92
2016-06-17T11:36:24.662Z,22.88
2016-06-17T11:37:25.462Z,22.97
2016-06-17T11:38:24.072Z,22.94
2016-06-17T11:39:25.783Z,22.79
2016-06-17T11:40:24.080Z,22.65
2016-06-17T11:41:24.883Z,22.73
2016-06-17T11:42:24.086Z,22.7
2016-06-17T11:43:24.088Z,22.54
2016-06-17T11:44:24.735Z,22.47
2016-06-17T11:45:25.348Z,22.55
2016-06-17T11:46:24.145Z,22.52
2016-06-17T11:47:24.728Z,22.51
2016-06-17T11:48:24.118Z,22.57
2016-06-17T11:49:24.122Z,22.58
2016-06-17T11:50:24.125Z,22.58
2016-06-17T11:51:24.128Z,22.58
2016-06-17T11:52:25.620Z,22.52
2016-06-17T11:53:24.792Z,22.57
2016-06-17T11:54:24.201Z,22.61
2016-06-17T11:55:24.783Z,22.64
2016-06-17T11:56:24.162Z,22.73
2016-06-17T11:57:24.790Z,22.64
2016-06-17T11:58:25.484Z,22.77
2016-06-17T11:59:24.797Z,22.83
2016-06-17T12:00:24.800Z,22.82
2016-06-17T12:01:24.226Z,22.79
2016-06-17T12:02:24.182Z,22.72
2016-06-17T12:03:24.827Z,22.73
2016-06-17T12:04:24.206Z,22.7
2016-06-17T12:05:24.834Z,22.79
2016-06-17T12:06:25.462Z,22.83
2016-06-17T12:07:24.216Z,22.8
2016-06-17T12:08:24.844Z,22.82
2016-06-17T12:09:24.832Z,22.76
2016-06-17T12:10:24.991Z,22.77
2016-06-17T12:11:24.245Z,22.75
2016-06-17T12:12:24.639Z,22.8
2016-06-17T12:13:24.251Z,22.8
2016-06-17T12:14:24.255Z,22.9
2016-06-17T12:15:24.259Z,22.88
2016-06-17T12:16:24.266Z,22.85
2016-06-17T12:17:24.272Z,22.97
2016-06-17T12:18:24.294Z,23.01
2016-06-17T12:19:24.910Z,23.02
2016-06-17T12:20:24.289Z,23
2016-06-17T12:21:25.405Z,22.79
2016-06-17T12:22:24.362Z,22.77
2016-06-17T12:23:25.054Z,22.8
2016-06-17T12:24:24.949Z,22.85
2016-06-17T12:25:24.328Z,22.85
2016-06-17T12:26:24.332Z,22.73
2016-06-17T12:27:24.961Z,22.9
2016-06-17T12:28:24.340Z,22.92
2016-06-17T12:29:24.984Z,22.94
2016-06-17T12:30:24.348Z,22.91
2016-06-17T12:31:24.991Z,22.9
2016-06-17T12:32:24.370Z,22.94
2016-06-17T12:33:24.357Z,22.97
2016-06-17T12:34:25.439Z,23.1
2016-06-17T12:35:24.380Z,23.04
2016-06-17T12:36:25.008Z,23.04
2016-06-17T12:37:25.012Z,23.04
2016-06-17T12:38:24.406Z,23
2016-06-17T12:39:24.409Z,23.05
2016-06-17T12:40:24.397Z,23.01
2016-06-17T12:41:25.058Z,23.04
2016-06-17T12:42:25.045Z,23.02
2016-06-17T12:43:26.267Z,23.07
2016-06-17T12:44:24.443Z,23.15
2016-06-17T12:45:26.024Z,23.09
2016-06-17T12:46:24.450Z,23.07
2016-06-17T12:47:24.468Z,23
2016-06-17T12:49:24.444Z,23.07
2016-06-17T12:50:24.479Z,22.97
2016-06-17T12:51:24.467Z,23.01
2016-06-17T12:52:24.486Z,23.04
2016-06-17T12:53:25.099Z,23.01
2016-06-17T12:54:24.931Z,23
2016-06-17T12:55:25.106Z,23.07
2016-06-17T12:56:25.124Z,23.07
2016-06-17T12:57:24.503Z,23.15
2016-06-17T12:58:24.506Z,23.15
2016-06-17T12:59:25.745Z,23.07
2016-06-17T13:00:25.185Z,23.16
2016-06-17T13:01:24.532Z,23.15
2016-06-17T13:02:25.145Z,23.17
2016-06-17T13:03:24.556Z,23.2
2016-06-17T13:04:24.543Z,23.07
2016-06-17T13:05:25.906Z,23.17
2016-06-17T13:06:24.550Z,23.19
2016-06-17T13:07:24.569Z,23.27
2016-06-17T13:08:24.572Z,23.23
2016-06-17T13:09:24.576Z,23.31
2016-06-17T13:10:25.830Z,23.13
2016-06-17T13:11:24.583Z,23.15
2016-06-17T13:12:25.212Z,23.19
2016-06-17T13:13:24.590Z,23.02
2016-06-17T13:14:25.219Z,22.95